sensor_id;sensor_type;location;lat;lon;timestamp;P1;durP1;ratioP1;P2;durP2;ratioP2
68315;SDS011;55508;54.368;18.406;2023-03-04T00:02:18;16.08;;;9.75;;
68315;SDS011;55508;54.368;18.406;2023-03-04T00:04:45;20.08;;;9.02;;
68315;SDS011;55508;54.368;18.406;2023-03-04T00:07:12;19.70;;;10.13;;
68315;SDS011;55508;54.368;18.406;2023-03-04T00:09:43;7.82;;;5.90;;
68315;SDS011;55508;54.368;18.406;2023-03-04T00:12:10;15.70;;;9.85;;
68315;SDS011;55508;54.368;18.406;2023-03-04T00:14:38;14.45;;;7.20;;
68315;SDS011;55508;54.368;18.406;2023-03-04T00:17:05;19.33;;;8.75;;
68315;SDS011;55508;54.368;18.406;2023-03-04T00:19:32;17.35;;;9.32;;
68315;SDS011;55508;54.368;18.406;2023-03-04T00:22:00;10.93;;;5.05;;
68315;SDS011;55508;54.368;18.406;2023-03-04T00:24:29;11.93;;;7.97;;
68315;SDS011;55508;54.368;18.406;2023-03-04T00:26:57;11.77;;;6.95;;
68315;SDS011;55508;54.368;18.406;2023-03-04T00:29:24;11.88;;;7.53;;
68315;SDS011;55508;54.368;18.406;2023-03-04T00:31:51;15.60;;;8.38;;
68315;SDS011;55508;54.368;18.406;2023-03-04T00:34:18;18.55;;;8.55;;
68315;SDS011;55508;54.368;18.406;2023-03-04T00:36:45;14.73;;;6.85;;
68315;SDS011;55508;54.368;18.406;2023-03-04T00:39:12;19.50;;;8.68;;
68315;SDS011;55508;54.368;18.406;2023-03-04T00:41:39;14.50;;;6.80;;
68315;SDS011;55508;54.368;18.406;2023-03-04T00:44:06;15.30;;;8.07;;
68315;SDS011;55508;54.368;18.406;2023-03-04T00:46:33;19.65;;;6.28;;
68315;SDS011;55508;54.368;18.406;2023-03-04T00:49:00;15.48;;;8.25;;
68315;SDS011;55508;54.368;18.406;2023-03-04T00:51:27;17.17;;;7.85;;
68315;SDS011;55508;54.368;18.406;2023-03-04T00:53:54;15.43;;;6.45;;
68315;SDS011;55508;54.368;18.406;2023-03-04T00:56:21;15.07;;;7.05;;
68315;SDS011;55508;54.368;18.406;2023-03-04T00:58:48;14.55;;;7.68;;
68315;SDS011;55508;54.368;18.406;2023-03-04T01:01:15;12.20;;;7.38;;
68315;SDS011;55508;54.368;18.406;2023-03-04T01:03:42;14.30;;;6.85;;
68315;SDS011;55508;54.368;18.406;2023-03-04T01:06:09;22.45;;;8.48;;
68315;SDS011;55508;54.368;18.406;2023-03-04T01:08:37;16.83;;;7.38;;
68315;SDS011;55508;54.368;18.406;2023-03-04T01:11:04;20.85;;;7.50;;
68315;SDS011;55508;54.368;18.406;2023-03-04T01:13:32;21.08;;;7.65;;
68315;SDS011;55508;54.368;18.406;2023-03-04T01:15:59;10.73;;;5.32;;
68315;SDS011;55508;54.368;18.406;2023-03-04T01:18:26;23.55;;;7.95;;
68315;SDS011;55508;54.368;18.406;2023-03-04T01:20:53;18.30;;;5.97;;
68315;SDS011;55508;54.368;18.406;2023-03-04T01:23:20;16.02;;;6.55;;
68315;SDS011;55508;54.368;18.406;2023-03-04T01:25:47;20.75;;;7.53;;
68315;SDS011;55508;54.368;18.406;2023-03-04T01:28:14;16.00;;;7.00;;
68315;SDS011;55508;54.368;18.406;2023-03-04T01:30:41;18.25;;;7.30;;
68315;SDS011;55508;54.368;18.406;2023-03-04T01:33:08;19.42;;;6.97;;
68315;SDS011;55508;54.368;18.406;2023-03-04T01:35:34;13.20;;;6.85;;
68315;SDS011;55508;54.368;18.406;2023-03-04T01:38:01;26.60;;;6.57;;
68315;SDS011;55508;54.368;18.406;2023-03-04T01:40:30;17.48;;;6.20;;
68315;SDS011;55508;54.368;18.406;2023-03-04T01:42:57;15.52;;;6.78;;
68315;SDS011;55508;54.368;18.406;2023-03-04T01:45:24;13.73;;;5.45;;
68315;SDS011;55508;54.368;18.406;2023-03-04T01:47:51;14.73;;;6.57;;
68315;SDS011;55508;54.368;18.406;2023-03-04T01:50:21;21.10;;;6.65;;
68315;SDS011;55508;54.368;18.406;2023-03-04T01:52:53;22.10;;;7.18;;
68315;SDS011;55508;54.368;18.406;2023-03-04T01:55:20;17.80;;;6.32;;
68315;SDS011;55508;54.368;18.406;2023-03-04T01:57:48;19.92;;;6.03;;
68315;SDS011;55508;54.368;18.406;2023-03-04T02:00:24;19.00;;;5.35;;
68315;SDS011;55508;54.368;18.406;2023-03-04T02:02:57;17.77;;;5.95;;
68315;SDS011;55508;54.368;18.406;2023-03-04T02:05:26;11.00;;;5.57;;
68315;SDS011;55508;54.368;18.406;2023-03-04T02:07:54;17.00;;;5.63;;
68315;SDS011;55508;54.368;18.406;2023-03-04T02:10:21;12.32;;;4.80;;
68315;SDS011;55508;54.368;18.406;2023-03-04T02:12:49;10.48;;;4.55;;
68315;SDS011;55508;54.368;18.406;2023-03-04T02:15:16;13.27;;;5.57;;
68315;SDS011;55508;54.368;18.406;2023-03-04T02:17:43;10.27;;;3.10;;
68315;SDS011;55508;54.368;18.406;2023-03-04T02:23:12;9.05;;;3.42;;
68315;SDS011;55508;54.368;18.406;2023-03-04T02:25:49;15.50;;;4.88;;
68315;SDS011;55508;54.368;18.406;2023-03-04T02:28:41;16.13;;;5.32;;
68315;SDS011;55508;54.368;18.406;2023-03-04T02:34:06;16.10;;;4.85;;
68315;SDS011;55508;54.368;18.406;2023-03-04T02:36:37;8.18;;;4.05;;
68315;SDS011;55508;54.368;18.406;2023-03-04T02:39:10;11.93;;;4.05;;
68315;SDS011;55508;54.368;18.406;2023-03-04T02:41:39;14.38;;;4.40;;
68315;SDS011;55508;54.368;18.406;2023-03-04T02:44:16;13.68;;;4.30;;
68315;SDS011;55508;54.368;18.406;2023-03-04T02:46:45;12.82;;;4.13;;
68315;SDS011;55508;54.368;18.406;2023-03-04T02:49:12;15.85;;;4.20;;
68315;SDS011;55508;54.368;18.406;2023-03-04T02:51:39;11.88;;;4.40;;
68315;SDS011;55508;54.368;18.406;2023-03-04T02:54:16;12.15;;;4.07;;
68315;SDS011;55508;54.368;18.406;2023-03-04T02:56:45;23.20;;;4.85;;
68315;SDS011;55508;54.368;18.406;2023-03-04T02:59:14;17.17;;;4.75;;
68315;SDS011;55508;54.368;18.406;2023-03-04T03:01:41;17.65;;;4.72;;
68315;SDS011;55508;54.368;18.406;2023-03-04T03:04:09;19.83;;;4.68;;
68315;SDS011;55508;54.368;18.406;2023-03-04T03:06:37;18.70;;;4.20;;
68315;SDS011;55508;54.368;18.406;2023-03-04T03:09:04;22.40;;;4.43;;
68315;SDS011;55508;54.368;18.406;2023-03-04T03:11:32;14.77;;;4.72;;
68315;SDS011;55508;54.368;18.406;2023-03-04T03:14:00;11.07;;;3.45;;
68315;SDS011;55508;54.368;18.406;2023-03-04T03:16:27;16.38;;;4.93;;
68315;SDS011;55508;54.368;18.406;2023-03-04T03:18:54;13.98;;;3.88;;
68315;SDS011;55508;54.368;18.406;2023-03-04T03:21:23;12.50;;;4.18;;
68315;SDS011;55508;54.368;18.406;2023-03-04T03:23:50;14.48;;;4.95;;
68315;SDS011;55508;54.368;18.406;2023-03-04T03:26:17;24.23;;;5.47;;
68315;SDS011;55508;54.368;18.406;2023-03-04T03:28:44;20.25;;;5.07;;
68315;SDS011;55508;54.368;18.406;2023-03-04T03:31:11;20.90;;;5.80;;
68315;SDS011;55508;54.368;18.406;2023-03-04T03:33:39;19.88;;;6.20;;
68315;SDS011;55508;54.368;18.406;2023-03-04T03:36:06;16.38;;;4.60;;
68315;SDS011;55508;54.368;18.406;2023-03-04T03:38:33;14.85;;;3.58;;
68315;SDS011;55508;54.368;18.406;2023-03-04T03:41:00;15.65;;;4.35;;
68315;SDS011;55508;54.368;18.406;2023-03-04T03:43:27;15.60;;;4.45;;
68315;SDS011;55508;54.368;18.406;2023-03-04T03:45:54;13.95;;;4.53;;
68315;SDS011;55508;54.368;18.406;2023-03-04T03:48:21;19.00;;;4.80;;
68315;SDS011;55508;54.368;18.406;2023-03-04T03:50:48;20.63;;;4.65;;
68315;SDS011;55508;54.368;18.406;2023-03-04T03:53:15;15.02;;;4.18;;
68315;SDS011;55508;54.368;18.406;2023-03-04T03:55:42;14.70;;;3.95;;
68315;SDS011;55508;54.368;18.406;2023-03-04T03:58:08;12.00;;;4.45;;
68315;SDS011;55508;54.368;18.406;2023-03-04T04:00:35;10.55;;;3.17;;
68315;SDS011;55508;54.368;18.406;2023-03-04T04:03:02;10.40;;;4.10;;
68315;SDS011;55508;54.368;18.406;2023-03-04T04:05:29;11.60;;;4.05;;
68315;SDS011;55508;54.368;18.406;2023-03-04T04:07:56;14.40;;;4.10;;
68315;SDS011;55508;54.368;18.406;2023-03-04T04:10:23;9.32;;;3.85;;
68315;SDS011;55508;54.368;18.406;2023-03-04T04:12:50;9.15;;;3.65;;
68315;SDS011;55508;54.368;18.406;2023-03-04T04:15:17;11.27;;;4.10;;
68315;SDS011;55508;54.368;18.406;2023-03-04T04:17:44;18.83;;;4.55;;
68315;SDS011;55508;54.368;18.406;2023-03-04T04:20:11;17.63;;;4.63;;
68315;SDS011;55508;54.368;18.406;2023-03-04T04:22:37;10.57;;;3.90;;
68315;SDS011;55508;54.368;18.406;2023-03-04T04:25:05;17.58;;;4.97;;
68315;SDS011;55508;54.368;18.406;2023-03-04T04:27:34;16.48;;;4.68;;
68315;SDS011;55508;54.368;18.406;2023-03-04T04:30:01;17.05;;;3.70;;
68315;SDS011;55508;54.368;18.406;2023-03-04T04:32:29;16.00;;;4.82;;
68315;SDS011;55508;54.368;18.406;2023-03-04T04:34:56;11.68;;;4.68;;
68315;SDS011;55508;54.368;18.406;2023-03-04T04:37:23;14.00;;;4.32;;
68315;SDS011;55508;54.368;18.406;2023-03-04T04:39:50;12.75;;;3.83;;
68315;SDS011;55508;54.368;18.406;2023-03-04T04:42:17;13.38;;;4.68;;
68315;SDS011;55508;54.368;18.406;2023-03-04T04:44:44;10.52;;;4.22;;
68315;SDS011;55508;54.368;18.406;2023-03-04T04:47:11;10.57;;;4.10;;
68315;SDS011;55508;54.368;18.406;2023-03-04T04:49:38;14.65;;;4.43;;
68315;SDS011;55508;54.368;18.406;2023-03-04T04:52:05;9.90;;;3.92;;
68315;SDS011;55508;54.368;18.406;2023-03-04T04:54:32;14.73;;;4.93;;
68315;SDS011;55508;54.368;18.406;2023-03-04T04:56:58;8.20;;;3.25;;
68315;SDS011;55508;54.368;18.406;2023-03-04T04:59:25;11.32;;;3.40;;
68315;SDS011;55508;54.368;18.406;2023-03-04T05:01:52;11.93;;;4.30;;
68315;SDS011;55508;54.368;18.406;2023-03-04T05:04:19;17.75;;;4.55;;
68315;SDS011;55508;54.368;18.406;2023-03-04T05:06:46;19.88;;;4.55;;
68315;SDS011;55508;54.368;18.406;2023-03-04T05:09:13;18.02;;;4.40;;
68315;SDS011;55508;54.368;18.406;2023-03-04T05:11:40;11.82;;;4.65;;
68315;SDS011;55508;54.368;18.406;2023-03-04T05:14:07;17.67;;;5.30;;
68315;SDS011;55508;54.368;18.406;2023-03-04T05:16:33;15.00;;;4.97;;
68315;SDS011;55508;54.368;18.406;2023-03-04T05:19:00;11.85;;;3.95;;
68315;SDS011;55508;54.368;18.406;2023-03-04T05:21:27;14.60;;;4.65;;
68315;SDS011;55508;54.368;18.406;2023-03-04T05:23:54;17.00;;;4.88;;
68315;SDS011;55508;54.368;18.406;2023-03-04T05:26:21;13.20;;;3.97;;
68315;SDS011;55508;54.368;18.406;2023-03-04T05:28:48;16.27;;;5.00;;
68315;SDS011;55508;54.368;18.406;2023-03-04T05:31:15;11.18;;;3.70;;
68315;SDS011;55508;54.368;18.406;2023-03-04T05:33:43;11.30;;;4.18;;
68315;SDS011;55508;54.368;18.406;2023-03-04T05:36:10;14.52;;;3.78;;
68315;SDS011;55508;54.368;18.406;2023-03-04T05:38:37;13.02;;;4.35;;
68315;SDS011;55508;54.368;18.406;2023-03-04T05:41:05;13.10;;;4.63;;
68315;SDS011;55508;54.368;18.406;2023-03-04T05:43:33;7.45;;;3.22;;
68315;SDS011;55508;54.368;18.406;2023-03-04T05:46:02;9.25;;;3.53;;
68315;SDS011;55508;54.368;18.406;2023-03-04T05:48:30;12.38;;;3.40;;
68315;SDS011;55508;54.368;18.406;2023-03-04T05:50:58;10.80;;;3.60;;
68315;SDS011;55508;54.368;18.406;2023-03-04T05:53:27;9.60;;;3.53;;
68315;SDS011;55508;54.368;18.406;2023-03-04T05:55:54;12.30;;;3.70;;
68315;SDS011;55508;54.368;18.406;2023-03-04T05:58:21;11.23;;;3.83;;
68315;SDS011;55508;54.368;18.406;2023-03-04T06:00:48;10.63;;;3.75;;
68315;SDS011;55508;54.368;18.406;2023-03-04T06:03:15;12.75;;;3.80;;
68315;SDS011;55508;54.368;18.406;2023-03-04T06:05:43;8.10;;;3.50;;
68315;SDS011;55508;54.368;18.406;2023-03-04T06:08:11;14.40;;;4.20;;
68315;SDS011;55508;54.368;18.406;2023-03-04T06:10:39;11.80;;;4.10;;
68315;SDS011;55508;54.368;18.406;2023-03-04T06:13:07;9.02;;;3.03;;
68315;SDS011;55508;54.368;18.406;2023-03-04T06:15:34;11.25;;;3.25;;
68315;SDS011;55508;54.368;18.406;2023-03-04T06:18:01;10.25;;;3.75;;
68315;SDS011;55508;54.368;18.406;2023-03-04T06:20:28;10.93;;;4.03;;
68315;SDS011;55508;54.368;18.406;2023-03-04T06:22:55;9.10;;;3.70;;
68315;SDS011;55508;54.368;18.406;2023-03-04T06:25:22;8.32;;;3.90;;
68315;SDS011;55508;54.368;18.406;2023-03-04T06:27:49;11.65;;;4.40;;
68315;SDS011;55508;54.368;18.406;2023-03-04T06:30:18;21.33;;;8.55;;
68315;SDS011;55508;54.368;18.406;2023-03-04T06:32:45;10.07;;;4.30;;
68315;SDS011;55508;54.368;18.406;2023-03-04T06:35:14;13.15;;;6.22;;
68315;SDS011;55508;54.368;18.406;2023-03-04T06:37:41;18.20;;;6.45;;
68315;SDS011;55508;54.368;18.406;2023-03-04T06:40:09;10.45;;;4.50;;
68315;SDS011;55508;54.368;18.406;2023-03-04T06:42:36;20.63;;;7.50;;
68315;SDS011;55508;54.368;18.406;2023-03-04T06:45:03;16.33;;;5.88;;
68315;SDS011;55508;54.368;18.406;2023-03-04T06:47:30;15.05;;;4.97;;
68315;SDS011;55508;54.368;18.406;2023-03-04T06:49:57;9.65;;;4.50;;
68315;SDS011;55508;54.368;18.406;2023-03-04T06:52:24;12.40;;;5.30;;
68315;SDS011;55508;54.368;18.406;2023-03-04T06:54:51;27.85;;;10.20;;
68315;SDS011;55508;54.368;18.406;2023-03-04T06:57:18;14.68;;;5.80;;
68315;SDS011;55508;54.368;18.406;2023-03-04T06:59:45;12.88;;;4.10;;
68315;SDS011;55508;54.368;18.406;2023-03-04T07:02:12;10.57;;;3.95;;
68315;SDS011;55508;54.368;18.406;2023-03-04T07:04:39;58.28;;;18.20;;
68315;SDS011;55508;54.368;18.406;2023-03-04T07:07:06;18.95;;;6.95;;
68315;SDS011;55508;54.368;18.406;2023-03-04T07:09:33;16.13;;;6.30;;
68315;SDS011;55508;54.368;18.406;2023-03-04T07:12:00;7.55;;;3.08;;
68315;SDS011;55508;54.368;18.406;2023-03-04T07:14:27;9.80;;;4.75;;
68315;SDS011;55508;54.368;18.406;2023-03-04T07:16:54;9.35;;;3.45;;
68315;SDS011;55508;54.368;18.406;2023-03-04T07:19:21;8.70;;;3.88;;
68315;SDS011;55508;54.368;18.406;2023-03-04T07:21:48;12.05;;;4.65;;
68315;SDS011;55508;54.368;18.406;2023-03-04T07:24:15;12.00;;;4.47;;
68315;SDS011;55508;54.368;18.406;2023-03-04T07:26:42;7.35;;;2.90;;
68315;SDS011;55508;54.368;18.406;2023-03-04T07:29:09;8.02;;;3.58;;
68315;SDS011;55508;54.368;18.406;2023-03-04T07:31:37;7.65;;;3.40;;
68315;SDS011;55508;54.368;18.406;2023-03-04T07:34:05;8.95;;;3.65;;
68315;SDS011;55508;54.368;18.406;2023-03-04T07:36:34;6.18;;;3.10;;
68315;SDS011;55508;54.368;18.406;2023-03-04T07:39:02;4.57;;;2.42;;
68315;SDS011;55508;54.368;18.406;2023-03-04T07:41:30;3.63;;;1.50;;
68315;SDS011;55508;54.368;18.406;2023-03-04T07:43:58;5.03;;;2.13;;
68315;SDS011;55508;54.368;18.406;2023-03-04T07:46:25;5.03;;;1.00;;
68315;SDS011;55508;54.368;18.406;2023-03-04T07:48:53;1.58;;;1.02;;
68315;SDS011;55508;54.368;18.406;2023-03-04T07:51:21;1.30;;;0.60;;
68315;SDS011;55508;54.368;18.406;2023-03-04T07:53:50;3.65;;;1.05;;
68315;SDS011;55508;54.368;18.406;2023-03-04T07:56:20;2.22;;;0.95;;
68315;SDS011;55508;54.368;18.406;2023-03-04T07:58:48;3.47;;;1.17;;
68315;SDS011;55508;54.368;18.406;2023-03-04T08:01:19;1.52;;;0.75;;
68315;SDS011;55508;54.368;18.406;2023-03-04T08:03:48;0.85;;;0.40;;
68315;SDS011;55508;54.368;18.406;2023-03-04T08:06:16;1.38;;;0.60;;
68315;SDS011;55508;54.368;18.406;2023-03-04T08:08:43;2.20;;;0.82;;
68315;SDS011;55508;54.368;18.406;2023-03-04T08:11:12;1.67;;;0.60;;
68315;SDS011;55508;54.368;18.406;2023-03-04T08:13:46;2.28;;;0.60;;
68315;SDS011;55508;54.368;18.406;2023-03-04T08:16:16;4.07;;;0.82;;
68315;SDS011;55508;54.368;18.406;2023-03-04T08:18:45;1.60;;;0.60;;
68315;SDS011;55508;54.368;18.406;2023-03-04T08:21:15;1.90;;;0.60;;
68315;SDS011;55508;54.368;18.406;2023-03-04T08:23:45;3.10;;;0.88;;
68315;SDS011;55508;54.368;18.406;2023-03-04T08:26:17;2.35;;;0.70;;
68315;SDS011;55508;54.368;18.406;2023-03-04T08:28:45;1.67;;;1.00;;
68315;SDS011;55508;54.368;18.406;2023-03-04T08:31:13;8.57;;;0.50;;
68315;SDS011;55508;54.368;18.406;2023-03-04T08:33:41;1.55;;;0.57;;
68315;SDS011;55508;54.368;18.406;2023-03-04T08:36:08;0.93;;;0.60;;
68315;SDS011;55508;54.368;18.406;2023-03-04T08:38:35;1.83;;;0.50;;
68315;SDS011;55508;54.368;18.406;2023-03-04T08:41:02;1.05;;;0.70;;
68315;SDS011;55508;54.368;18.406;2023-03-04T08:43:30;1.25;;;0.50;;
68315;SDS011;55508;54.368;18.406;2023-03-04T08:45:57;1.92;;;0.70;;
68315;SDS011;55508;54.368;18.406;2023-03-04T08:48:24;0.80;;;0.70;;
68315;SDS011;55508;54.368;18.406;2023-03-04T08:50:52;2.67;;;0.80;;
68315;SDS011;55508;54.368;18.406;2023-03-04T08:53:20;1.83;;;0.70;;
68315;SDS011;55508;54.368;18.406;2023-03-04T08:55:47;0.52;;;0.47;;
68315;SDS011;55508;54.368;18.406;2023-03-04T08:58:14;0.68;;;0.40;;
68315;SDS011;55508;54.368;18.406;2023-03-04T09:00:42;0.80;;;0.40;;
68315;SDS011;55508;54.368;18.406;2023-03-04T09:03:17;0.90;;;0.50;;
68315;SDS011;55508;54.368;18.406;2023-03-04T09:05:47;6.43;;;0.50;;
68315;SDS011;55508;54.368;18.406;2023-03-04T09:08:14;0.35;;;0.30;;
68315;SDS011;55508;54.368;18.406;2023-03-04T09:10:42;0.82;;;0.45;;
68315;SDS011;55508;54.368;18.406;2023-03-04T09:13:10;0.88;;;0.52;;
68315;SDS011;55508;54.368;18.406;2023-03-04T09:15:46;1.23;;;0.75;;
68315;SDS011;55508;54.368;18.406;2023-03-04T09:18:19;2.28;;;0.60;;
68315;SDS011;55508;54.368;18.406;2023-03-04T09:20:48;2.08;;;0.75;;
68315;SDS011;55508;54.368;18.406;2023-03-04T09:23:15;1.38;;;0.47;;
68315;SDS011;55508;54.368;18.406;2023-03-04T09:25:43;3.47;;;0.50;;
68315;SDS011;55508;54.368;18.406;2023-03-04T09:28:12;1.08;;;0.63;;
68315;SDS011;55508;54.368;18.406;2023-03-04T09:30:40;1.38;;;0.63;;
68315;SDS011;55508;54.368;18.406;2023-03-04T09:33:07;0.82;;;0.60;;
68315;SDS011;55508;54.368;18.406;2023-03-04T09:35:34;2.05;;;0.57;;
68315;SDS011;55508;54.368;18.406;2023-03-04T09:38:01;2.75;;;0.65;;
68315;SDS011;55508;54.368;18.406;2023-03-04T09:40:29;1.58;;;0.90;;
68315;SDS011;55508;54.368;18.406;2023-03-04T09:43:21;1.92;;;0.80;;
68315;SDS011;55508;54.368;18.406;2023-03-04T09:45:56;1.48;;;0.98;;
68315;SDS011;55508;54.368;18.406;2023-03-04T09:48:34;0.98;;;0.52;;
68315;SDS011;55508;54.368;18.406;2023-03-04T09:51:19;1.15;;;0.55;;
68315;SDS011;55508;54.368;18.406;2023-03-04T09:54:07;1.45;;;0.73;;
68315;SDS011;55508;54.368;18.406;2023-03-04T09:56:37;0.50;;;0.32;;
68315;SDS011;55508;54.368;18.406;2023-03-04T09:59:22;1.80;;;1.27;;
68315;SDS011;55508;54.368;18.406;2023-03-04T10:01:52;1.60;;;0.93;;
68315;SDS011;55508;54.368;18.406;2023-03-04T10:04:28;1.77;;;0.75;;
68315;SDS011;55508;54.368;18.406;2023-03-04T10:07:02;1.38;;;0.82;;
68315;SDS011;55508;54.368;18.406;2023-03-04T10:09:36;0.98;;;0.38;;
68315;SDS011;55508;54.368;18.406;2023-03-04T10:12:15;0.90;;;0.57;;
68315;SDS011;55508;54.368;18.406;2023-03-04T10:17:24;0.20;;;0.20;;
68315;SDS011;55508;54.368;18.406;2023-03-04T10:20:23;3.17;;;0.40;;
68315;SDS011;55508;54.368;18.406;2023-03-04T10:22:55;1.15;;;0.50;;
68315;SDS011;55508;54.368;18.406;2023-03-04T10:25:25;0.73;;;0.52;;
68315;SDS011;55508;54.368;18.406;2023-03-04T10:33:43;0.50;;;0.38;;
68315;SDS011;55508;54.368;18.406;2023-03-04T10:39:09;0.43;;;0.40;;
68315;SDS011;55508;54.368;18.406;2023-03-04T10:41:41;0.32;;;0.32;;
68315;SDS011;55508;54.368;18.406;2023-03-04T10:44:14;0.57;;;0.30;;
68315;SDS011;55508;54.368;18.406;2023-03-04T10:49:11;3.75;;;0.40;;
68315;SDS011;55508;54.368;18.406;2023-03-04T10:51:42;0.90;;;0.25;;
68315;SDS011;55508;54.368;18.406;2023-03-04T10:54:27;0.43;;;0.30;;
68315;SDS011;55508;54.368;18.406;2023-03-04T10:57:19;0.38;;;0.32;;
68315;SDS011;55508;54.368;18.406;2023-03-04T10:59:55;0.70;;;0.70;;
68315;SDS011;55508;54.368;18.406;2023-03-04T11:02:27;1.42;;;0.40;;
68315;SDS011;55508;54.368;18.406;2023-03-04T11:05:04;2.47;;;0.40;;
68315;SDS011;55508;54.368;18.406;2023-03-04T11:07:48;0.57;;;0.50;;
68315;SDS011;55508;54.368;18.406;2023-03-04T11:13:16;2.92;;;1.67;;
68315;SDS011;55508;54.368;18.406;2023-03-04T11:15:50;2.13;;;0.70;;
68315;SDS011;55508;54.368;18.406;2023-03-04T11:18:33;3.28;;;0.50;;
68315;SDS011;55508;54.368;18.406;2023-03-04T11:21:16;4.95;;;0.35;;
68315;SDS011;55508;54.368;18.406;2023-03-04T11:26:55;3.45;;;0.30;;
68315;SDS011;55508;54.368;18.406;2023-03-04T11:29:30;0.60;;;0.22;;
68315;SDS011;55508;54.368;18.406;2023-03-04T11:32:08;2.30;;;0.43;;
68315;SDS011;55508;54.368;18.406;2023-03-04T11:34:45;1.08;;;0.30;;
68315;SDS011;55508;54.368;18.406;2023-03-04T11:37:33;1.25;;;0.30;;
68315;SDS011;55508;54.368;18.406;2023-03-04T11:40:28;1.88;;;0.38;;
68315;SDS011;55508;54.368;18.406;2023-03-04T11:43:06;1.20;;;0.45;;
68315;SDS011;55508;54.368;18.406;2023-03-04T11:45:46;5.07;;;0.40;;
68315;SDS011;55508;54.368;18.406;2023-03-04T11:48:41;5.60;;;0.40;;
68315;SDS011;55508;54.368;18.406;2023-03-04T11:51:33;1.95;;;0.85;;
68315;SDS011;55508;54.368;18.406;2023-03-04T11:54:22;1.05;;;0.50;;
68315;SDS011;55508;54.368;18.406;2023-03-04T11:57:05;1.88;;;0.32;;
68315;SDS011;55508;54.368;18.406;2023-03-04T11:59:41;1.30;;;0.50;;
68315;SDS011;55508;54.368;18.406;2023-03-04T12:05:49;1.75;;;0.43;;
68315;SDS011;55508;54.368;18.406;2023-03-04T12:08:47;2.53;;;0.40;;
68315;SDS011;55508;54.368;18.406;2023-03-04T12:11:33;1.35;;;0.40;;
68315;SDS011;55508;54.368;18.406;2023-03-04T12:17:19;4.55;;;0.52;;
68315;SDS011;55508;54.368;18.406;2023-03-04T12:22:57;1.40;;;0.60;;
68315;SDS011;55508;54.368;18.406;2023-03-04T12:25:38;0.68;;;0.30;;
68315;SDS011;55508;54.368;18.406;2023-03-04T12:31:21;0.50;;;0.32;;
68315;SDS011;55508;54.368;18.406;2023-03-04T12:34:21;1.27;;;0.40;;
68315;SDS011;55508;54.368;18.406;2023-03-04T12:40:04;1.10;;;0.30;;
68315;SDS011;55508;54.368;18.406;2023-03-04T12:45:16;0.52;;;0.38;;
68315;SDS011;55508;54.368;18.406;2023-03-04T12:50:52;1.05;;;0.57;;
68315;SDS011;55508;54.368;18.406;2023-03-04T12:53:29;3.85;;;0.77;;
68315;SDS011;55508;54.368;18.406;2023-03-04T12:56:00;5.63;;;0.60;;
68315;SDS011;55508;54.368;18.406;2023-03-04T12:58:29;0.28;;;0.28;;
68315;SDS011;55508;54.368;18.406;2023-03-04T13:03:54;1.88;;;0.50;;
68315;SDS011;55508;54.368;18.406;2023-03-04T13:09:46;0.30;;;0.30;;
68315;SDS011;55508;54.368;18.406;2023-03-04T13:12:18;0.70;;;0.30;;
68315;SDS011;55508;54.368;18.406;2023-03-04T13:17:51;4.88;;;1.10;;
68315;SDS011;55508;54.368;18.406;2023-03-04T13:20:33;0.73;;;0.50;;
68315;SDS011;55508;54.368;18.406;2023-03-04T13:28:44;1.33;;;0.75;;
68315;SDS011;55508;54.368;18.406;2023-03-04T13:31:12;0.52;;;0.40;;
68315;SDS011;55508;54.368;18.406;2023-03-04T13:33:46;0.43;;;0.23;;
68315;SDS011;55508;54.368;18.406;2023-03-04T13:36:25;0.50;;;0.30;;
68315;SDS011;55508;54.368;18.406;2023-03-04T13:41:30;1.50;;;0.60;;
68315;SDS011;55508;54.368;18.406;2023-03-04T13:44:30;2.78;;;1.52;;
68315;SDS011;55508;54.368;18.406;2023-03-04T13:47:06;1.05;;;0.40;;
68315;SDS011;55508;54.368;18.406;2023-03-04T13:49:34;1.15;;;0.32;;
68315;SDS011;55508;54.368;18.406;2023-03-04T13:52:30;0.93;;;0.50;;
68315;SDS011;55508;54.368;18.406;2023-03-04T13:57:56;0.55;;;0.50;;
68315;SDS011;55508;54.368;18.406;2023-03-04T14:00:23;0.43;;;0.28;;
68315;SDS011;55508;54.368;18.406;2023-03-04T14:02:51;2.85;;;0.43;;
68315;SDS011;55508;54.368;18.406;2023-03-04T14:05:18;1.33;;;1.05;;
68315;SDS011;55508;54.368;18.406;2023-03-04T14:07:45;2.22;;;0.57;;
68315;SDS011;55508;54.368;18.406;2023-03-04T14:10:21;1.95;;;0.77;;
68315;SDS011;55508;54.368;18.406;2023-03-04T14:12:50;1.33;;;0.80;;
68315;SDS011;55508;54.368;18.406;2023-03-04T14:15:26;2.45;;;1.10;;
68315;SDS011;55508;54.368;18.406;2023-03-04T14:17:58;3.08;;;1.38;;
68315;SDS011;55508;54.368;18.406;2023-03-04T14:20:34;4.68;;;0.65;;
68315;SDS011;55508;54.368;18.406;2023-03-04T14:23:03;5.82;;;0.60;;
68315;SDS011;55508;54.368;18.406;2023-03-04T14:25:48;2.10;;;0.50;;
68315;SDS011;55508;54.368;18.406;2023-03-04T14:28:18;1.67;;;0.55;;
68315;SDS011;55508;54.368;18.406;2023-03-04T14:30:53;3.35;;;1.10;;
68315;SDS011;55508;54.368;18.406;2023-03-04T14:33:22;4.97;;;0.70;;
68315;SDS011;55508;54.368;18.406;2023-03-04T14:35:51;2.90;;;0.50;;
68315;SDS011;55508;54.368;18.406;2023-03-04T14:38:25;4.33;;;0.57;;
68315;SDS011;55508;54.368;18.406;2023-03-04T14:41:02;1.27;;;0.68;;
68315;SDS011;55508;54.368;18.406;2023-03-04T14:46:29;5.63;;;1.00;;
68315;SDS011;55508;54.368;18.406;2023-03-04T14:49:02;2.15;;;1.00;;
68315;SDS011;55508;54.368;18.406;2023-03-04T14:51:38;1.50;;;0.60;;
68315;SDS011;55508;54.368;18.406;2023-03-04T14:56:57;2.38;;;0.85;;
68315;SDS011;55508;54.368;18.406;2023-03-04T14:59:32;1.50;;;0.52;;
68315;SDS011;55508;54.368;18.406;2023-03-04T15:02:17;0.98;;;0.47;;
68315;SDS011;55508;54.368;18.406;2023-03-04T15:05:09;2.80;;;0.70;;
68315;SDS011;55508;54.368;18.406;2023-03-04T15:08:14;1.80;;;1.33;;
68315;SDS011;55508;54.368;18.406;2023-03-04T15:11:00;1.10;;;0.70;;
68315;SDS011;55508;54.368;18.406;2023-03-04T15:13:45;2.97;;;0.70;;
68315;SDS011;55508;54.368;18.406;2023-03-04T15:16:16;1.00;;;0.40;;
68315;SDS011;55508;54.368;18.406;2023-03-04T15:21:46;1.17;;;0.40;;
68315;SDS011;55508;54.368;18.406;2023-03-04T15:24:13;1.60;;;0.80;;
68315;SDS011;55508;54.368;18.406;2023-03-04T15:26:41;3.53;;;1.10;;
68315;SDS011;55508;54.368;18.406;2023-03-04T15:29:10;2.17;;;1.30;;
68315;SDS011;55508;54.368;18.406;2023-03-04T15:31:40;1.73;;;0.85;;
68315;SDS011;55508;54.368;18.406;2023-03-04T15:34:12;1.45;;;0.90;;
68315;SDS011;55508;54.368;18.406;2023-03-04T15:36:40;3.17;;;0.60;;
68315;SDS011;55508;54.368;18.406;2023-03-04T15:39:09;1.55;;;0.90;;
68315;SDS011;55508;54.368;18.406;2023-03-04T15:41:38;2.88;;;1.63;;
68315;SDS011;55508;54.368;18.406;2023-03-04T15:44:05;0.80;;;0.52;;
68315;SDS011;55508;54.368;18.406;2023-03-04T15:46:32;1.10;;;0.63;;
68315;SDS011;55508;54.368;18.406;2023-03-04T15:48:59;0.60;;;0.50;;
68315;SDS011;55508;54.368;18.406;2023-03-04T15:51:26;3.53;;;1.65;;
68315;SDS011;55508;54.368;18.406;2023-03-04T15:53:54;1.65;;;1.00;;
68315;SDS011;55508;54.368;18.406;2023-03-04T15:56:29;1.75;;;1.45;;
68315;SDS011;55508;54.368;18.406;2023-03-04T15:59:05;2.05;;;0.60;;
68315;SDS011;55508;54.368;18.406;2023-03-04T16:01:37;2.28;;;1.10;;
68315;SDS011;55508;54.368;18.406;2023-03-04T16:04:04;3.35;;;1.13;;
68315;SDS011;55508;54.368;18.406;2023-03-04T16:06:31;4.57;;;0.85;;